Time;durP1;ratioP1;P1;durP2;ratioP2;P2;SDS_P1;SDS_P2;PMS_P1;PMS_P2;Temp;Humidity;BMP_temperature;BMP_pressure;BME280_temperature;BME280_humidity;BME280_pressure;Samples;Min_cycle;Max_cycle;Signal;HPM_P1;HPM_P2
2022/09/11 00:01:48;;;;;;;;;;;;;;;15.68;100.00;101865.22;5071458;28;19968;-32
2022/09/11 00:04:15;;;;;;;;;;;;;;;15.65;100.00;101855.41;5071140;28;19962;-35
2022/09/11 00:06:43;;;;;;;;;;;;;;;15.65;100.00;101860.22;5071210;28;19924;-33
2022/09/11 00:09:11;;;;;;;;;;;;;;;15.63;100.00;101856.88;5071928;28;19972;-38
2022/09/11 00:11:40;;;;;;;;;;;;;;;15.60;100.00;101854.66;5070988;28;19933;-31
2022/09/11 00:14:10;;;;;;;;;;;;;;;15.57;100.00;101858.13;5051928;28;19928;-32
2022/09/11 00:16:38;;;;;;;;;;;;;;;15.53;100.00;101857.88;5065791;28;19925;-34
2022/09/11 00:19:07;;;;;;;;;;;;;;;15.52;100.00;101853.38;5070929;28;20386;-41
2022/09/11 00:21:35;;;;;;;;;;;;;;;15.49;100.00;101851.19;5071373;28;19963;-39
2022/09/11 00:24:03;;;;;;;;;;;;;;;15.46;100.00;101841.38;5071841;28;19954;-32
2022/09/11 00:26:31;;;;;;;;;;;;;;;15.44;100.00;101849.28;5070758;28;19928;-39
2022/09/11 00:29:00;;;;;;;;;;;;;;;15.42;100.00;101856.38;5052049;28;20032;-35
2022/09/11 00:31:31;;;;;;;;;;;;;;;15.39;100.00;101852.19;5071737;28;20372;-31
2022/09/11 00:33:59;;;;;;;;;;;;;;;15.36;100.00;101847.19;5070862;28;19974;-37
2022/09/11 00:36:30;;;;;;;;;;;;;;;15.35;100.00;101856.78;5071602;28;20389;-32
2022/09/11 00:38:58;;;;;;;;;;;;;;;15.33;100.00;101852.59;5071542;28;19997;-39
2022/09/11 00:41:27;;;;;;;;;;;;;;;15.30;100.00;101854.03;5071066;28;20003;-37
2022/09/11 00:44:00;;;;;;;;;;;;;;;15.27;100.00;101851.00;5066483;28;20330;-33
2022/09/11 00:46:34;;;;;;;;;;;;;;;15.22;100.00;101846.28;5070946;28;20025;-33
2022/09/11 00:49:03;;;;;;;;;;;;;;;15.20;100.00;101847.75;5066308;28;19970;-33
2022/09/11 00:51:33;;;;;;;;;;;;;;;15.16;100.00;101853.16;5071158;28;19982;-35
2022/09/11 00:54:02;;;;;;;;;;;;;;;15.14;100.00;101850.66;5070845;28;19925;-43
2022/09/11 00:56:34;;;;;;;;;;;;;;;15.12;100.00;101843.66;5071436;28;19964;-34
2022/09/11 00:59:02;;;;;;;;;;;;;;;15.10;100.00;101855.22;5063457;28;19924;-37
2022/09/11 01:01:30;;;;;;;;;;;;;;;15.08;100.00;101851.03;5052528;28;19924;-33
2022/09/11 01:04:00;;;;;;;;;;;;;;;15.05;100.00;101846.03;5051667;28;19982;-39
2022/09/11 01:06:28;;;;;;;;;;;;;;;15.02;100.00;101846.63;5053722;28;19928;-34
2022/09/11 01:08:58;;;;;;;;;;;;;;;14.99;100.00;101848.06;5051887;28;19924;-39
2022/09/11 01:11:40;;;;;;;;;;;;;;;14.96;100.00;101845.06;5071293;28;19932;-33
2022/09/11 01:14:11;;;;;;;;;;;;;;;14.92;100.00;101841.19;5052669;28;20382;-36
2022/09/11 01:16:42;;;;;;;;;;;;;;;14.90;100.00;101840.63;5052444;28;19936;-34
2022/09/11 01:19:19;;;;;;;;;;;;;;;14.86;100.00;101837.59;5073147;28;20305;-32
2022/09/11 01:21:55;;;;;;;;;;;;;;;14.83;100.00;101833.41;5074717;28;19982;-32
2022/09/11 01:24:31;;;;;;;;;;;;;;;14.81;100.00;101840.47;5074584;28;20347;-35
2022/09/11 01:27:19;;;;;;;;;;;;;;;14.75;100.00;101836.94;5074995;28;19929;-39
2022/09/11 01:29:50;;;;;;;;;;;;;;;14.73;100.00;101841.19;5044610;28;19928;-35
2022/09/11 01:32:20;;;;;;;;;;;;;;;14.69;100.00;101840.09;5057019;28;19924;-36
2022/09/11 01:34:51;;;;;;;;;;;;;;;14.64;100.00;101843.81;5074657;28;19925;-32
2022/09/11 01:37:22;;;;;;;;;;;;;;;14.61;100.00;101847.22;5062189;28;19935;-40
2022/09/11 01:39:56;;;;;;;;;;;;;;;14.59;100.00;101845.88;5056276;28;19925;-38
2022/09/11 01:42:24;;;;;;;;;;;;;;;14.57;100.00;101851.81;5074892;28;19924;-41
2022/09/11 01:44:56;;;;;;;;;;;;;;;14.57;100.00;101851.81;5074337;28;19929;-36
2022/09/11 01:47:25;;;;;;;;;;;;;;;14.55;100.00;101847.63;5056813;28;20369;-39
2022/09/11 01:49:56;;;;;;;;;;;;;;;14.54;100.00;101858.03;5073534;28;19974;-32
2022/09/11 01:52:29;;;;;;;;;;;;;;;14.52;100.00;101854.66;5046295;28;20008;-41
2022/09/11 01:55:01;;;;;;;;;;;;;;;14.47;100.00;101851.94;5056357;28;19924;-32
2022/09/11 01:57:33;;;;;;;;;;;;;;;14.46;100.00;101853.06;5055741;28;19928;-43
2022/09/11 02:00:06;;;;;;;;;;;;;;;14.42;100.00;101843.56;5056135;28;19925;-32
2022/09/11 02:02:44;;;;;;;;;;;;;;;14.38;100.00;101843.31;5074294;28;19929;-36
2022/09/11 02:05:15;;;;;;;;;;;;;;;14.36;100.00;101850.38;5055496;28;19932;-36
2022/09/11 02:07:47;;;;;;;;;;;;;;;14.33;100.00;101853.78;5074381;28;19929;-32
2022/09/11 02:10:17;;;;;;;;;;;;;;;14.30;100.00;101858.00;5055992;28;19925;-35
2022/09/11 02:12:51;;;;;;;;;;;;;;;14.28;100.00;101862.25;5055462;28;19928;-39
2022/09/11 02:15:24;;;;;;;;;;;;;;;14.26;100.00;101861.72;5055912;28;20370;-33
2022/09/11 02:17:54;;;;;;;;;;;;;;;14.24;100.00;101861.16;5041504;28;19924;-35
2022/09/11 02:20:27;;;;;;;;;;;;;;;14.21;100.00;101861.78;5055787;28;19946;-32
2022/09/11 02:22:55;;;;;;;;;;;;;;;14.19;100.00;101870.47;5066290;28;19931;-34
2022/09/11 02:25:23;;;;;;;;;;;;;;;14.17;100.00;101869.97;5054837;28;19924;-35
2022/09/11 02:27:55;;;;;;;;;;;;;;;14.17;100.00;101877.56;5055892;28;19935;-32
2022/09/11 02:30:24;;;;;;;;;;;;;;;14.14;100.00;101870.56;5054691;28;20286;-32
2022/09/11 02:32:54;;;;;;;;;;;;;;;14.12;100.00;101868.06;5054814;28;19924;-36
2022/09/11 02:35:23;;;;;;;;;;;;;;;14.09;100.00;101874.25;5073570;28;19988;-38
2022/09/11 02:37:55;;;;;;;;;;;;;;;14.07;100.00;101870.91;5055466;28;19931;-42
2022/09/11 02:40:31;;;;;;;;;;;;;;;14.06;100.00;101868.41;5040498;28;19977;-43
2022/09/11 02:43:09;;;;;;;;;;;;;;;14.03;100.00;101869.84;5051673;28;19932;-40
2022/09/11 02:45:47;;;;;;;;;;;;;;;14.00;100.00;101870.44;5041371;28;19932;-36
2022/09/11 02:48:24;;;;;;;;;;;;;;;13.99;100.00;101863.13;5062006;28;20290;-38
2022/09/11 02:50:58;;;;;;;;;;;;;;;13.98;100.00;101872.72;5055414;28;19930;-34
2022/09/11 02:53:29;;;;;;;;;;;;;;;13.97;100.00;101864.59;5054571;28;19924;-39
2022/09/11 02:56:01;;;;;;;;;;;;;;;13.96;100.00;101868.53;5055295;28;20405;-36
2022/09/11 02:58:33;;;;;;;;;;;;;;;13.94;100.00;101865.19;5055298;28;19974;-37
2022/09/11 03:01:03;;;;;;;;;;;;;;;13.90;100.00;101864.94;5039235;28;19978;-37
2022/09/11 03:03:37;;;;;;;;;;;;;;;13.88;100.00;101864.41;5055080;28;20016;-33
2022/09/11 03:06:05;;;;;;;;;;;;;;;13.86;100.00;101871.44;5055212;28;19924;-34
2022/09/11 03:08:33;;;;;;;;;;;;;;;13.83;100.00;101881.28;5072234;28;19975;-36
2022/09/11 03:11:01;;;;;;;;;;;;;;;13.82;100.00;101884.38;5054892;28;19929;-32
2022/09/11 03:13:31;;;;;;;;;;;;;;;13.79;100.00;101880.19;5054796;28;19929;-33
2022/09/11 03:16:00;;;;;;;;;;;;;;;13.78;100.00;101886.97;5063930;28;20386;-35
2022/09/11 03:18:29;;;;;;;;;;;;;;;13.75;100.00;101890.34;5068009;28;19929;-37
2022/09/11 03:20:56;;;;;;;;;;;;;;;13.73;100.00;101893.44;5054081;28;19925;-33
2022/09/11 03:23:25;;;;;;;;;;;;;;;13.72;100.00;101890.94;5072360;28;19931;-35
2022/09/11 03:25:53;;;;;;;;;;;;;;;13.71;100.00;101892.06;5072505;28;19935;-32
2022/09/11 03:28:22;;;;;;;;;;;;;;;13.70;100.00;101893.19;5053424;28;19946;-33
2022/09/11 03:30:51;;;;;;;;;;;;;;;13.69;100.00;101888.72;5037769;28;19972;-33
2022/09/11 03:33:19;;;;;;;;;;;;;;;13.68;100.00;101887.88;5035203;28;19947;-36
2022/09/11 03:35:48;;;;;;;;;;;;;;;13.68;100.00;101885.06;5039384;28;19931;-43
2022/09/11 03:38:16;;;;;;;;;;;;;;;13.66;100.00;101890.16;5044196;28;20373;-33
2022/09/11 03:40:43;;;;;;;;;;;;;;;13.65;100.00;101890.44;5042573;28;19925;-37
2022/09/11 03:43:12;;;;;;;;;;;;;;;13.64;100.00;101897.19;5038321;28;19935;-31
2022/09/11 03:45:39;;;;;;;;;;;;;;;13.62;100.00;101888.22;5040948;28;19931;-31
2022/09/11 03:48:08;;;;;;;;;;;;;;;13.59;100.00;101886.03;5045436;28;19925;-33
2022/09/11 03:50:36;;;;;;;;;;;;;;;13.57;100.00;101891.09;5035869;28;19939;-31
2022/09/11 03:53:05;;;;;;;;;;;;;;;13.56;100.00;101892.22;5047203;28;20023;-31
2022/09/11 03:55:33;;;;;;;;;;;;;;;13.53;100.00;101887.19;5043602;28;20301;-31
2022/09/11 03:58:01;;;;;;;;;;;;;;;13.53;100.00;101887.19;5033183;28;19929;-31
2022/09/11 04:00:29;;;;;;;;;;;;;;;13.51;100.00;101890.28;5040564;28;19925;-31
2022/09/11 04:02:57;;;;;;;;;;;;;;;13.51;100.00;101890.28;5049886;28;20304;-33
2022/09/11 04:05:31;;;;;;;;;;;;;;;13.49;100.00;101889.75;5041145;28;20408;-32
2022/09/11 04:08:01;;;;;;;;;;;;;;;13.47;100.00;101888.34;5033661;28;19963;-31
2022/09/11 04:10:31;;;;;;;;;;;;;;;13.44;100.00;101885.00;5039039;28;19948;-36
2022/09/11 04:13:00;;;;;;;;;;;;;;;13.43;100.00;101888.09;5047115;28;19936;-31
2022/09/11 04:15:28;;;;;;;;;;;;;;;13.41;100.00;101881.94;5041089;28;19931;-32
2022/09/11 04:17:56;;;;;;;;;;;;;;;13.38;100.00;101883.41;5034829;28;19975;-38
2022/09/11 04:20:28;;;;;;;;;;;;;;;13.38;100.00;101888.16;5040827;28;19926;-41
2022/09/11 04:22:56;;;;;;;;;;;;;;;13.36;100.00;101893.22;5044108;28;19963;-40
2022/09/11 04:25:24;;;;;;;;;;;;;;;13.34;100.00;101896.31;5039872;28;19932;-38
2022/09/11 04:27:53;;;;;;;;;;;;;;;13.32;100.00;101894.94;5039053;28;20402;-37
2022/09/11 04:30:21;;;;;;;;;;;;;;;13.29;100.00;101899.16;5039910;28;19978;-37
2022/09/11 04:32:51;;;;;;;;;;;;;;;13.28;100.00;101896.66;5039831;28;19932;-37
2022/09/11 04:35:20;;;;;;;;;;;;;;;13.27;100.00;101898.63;5040589;28;20019;-37
2022/09/11 04:37:53;;;;;;;;;;;;;;;13.25;100.00;101895.25;5041586;28;19929;-34
2022/09/11 04:40:20;;;;;;;;;;;;;;;13.25;100.00;101895.25;5038765;28;19930;-35
2022/09/11 04:42:48;;;;;;;;;;;;;;;13.24;100.00;101896.38;5040360;28;19928;-35
2022/09/11 04:45:17;;;;;;;;;;;;;;;13.21;100.00;101901.72;5044200;28;20453;-40
2022/09/11 04:47:45;;;;;;;;;;;;;;;13.19;100.00;101902.03;5041597;28;20326;-39
2022/09/11 04:50:13;;;;;;;;;;;;;;;13.17;100.00;101898.69;5034978;28;19979;-39
2022/09/11 04:52:44;;;;;;;;;;;;;;;13.15;100.00;101903.75;5043705;28;19929;-34
2022/09/11 04:55:11;;;;;;;;;;;;;;;13.12;100.00;101907.09;5040526;28;19926;-38
2022/09/11 04:57:39;;;;;;;;;;;;;;;13.09;100.00;101911.31;5043374;28;19935;-38
2022/09/11 05:00:09;;;;;;;;;;;;;;;13.08;100.00;101908.81;5053939;28;19928;-40
2022/09/11 05:02:39;;;;;;;;;;;;;;;13.07;100.00;101907.13;5048252;28;19929;-37
2022/09/11 05:05:07;;;;;;;;;;;;;;;13.04;100.00;101905.75;5022145;28;19983;-39
2022/09/11 05:07:35;;;;;;;;;;;;;;;13.04;100.00;101908.53;5045835;28;20306;-42
2022/09/11 05:10:04;;;;;;;;;;;;;;;13.04;100.00;101902.09;5052961;28;20375;-37
2022/09/11 05:12:32;;;;;;;;;;;;;;;13.03;100.00;101912.47;5047257;28;19933;-37
2022/09/11 05:15:00;;;;;;;;;;;;;;;13.01;100.00;101909.13;5039926;28;19929;-32
2022/09/11 05:17:29;;;;;;;;;;;;;;;13.01;100.00;101913.88;5042770;28;19926;-38
2022/09/11 05:19:58;;;;;;;;;;;;;;;13.01;100.00;101919.50;5046845;28;19928;-41
2022/09/11 05:22:25;;;;;;;;;;;;;;;13.01;100.00;101917.53;5044315;28;19935;-39
2022/09/11 05:24:56;;;;;;;;;;;;;;;13.00;100.00;101921.47;5043652;28;19932;-38
2022/09/11 05:27:24;;;;;;;;;;;;;;;13.01;100.00;101930.69;5046596;28;20396;-34
2022/09/11 05:29:52;;;;;;;;;;;;;;;13.01;100.00;101933.50;5046481;28;19932;-35
2022/09/11 05:32:20;;;;;;;;;;;;;;;13.00;100.00;101937.44;5042576;28;19925;-36
2022/09/11 05:34:48;;;;;;;;;;;;;;;13.00;100.00;101949.47;5034997;28;20296;-39
2022/09/11 05:37:20;;;;;;;;;;;;;;;13.01;100.00;101937.13;5047532;28;19933;-39
2022/09/11 05:39:48;;;;;;;;;;;;;;;13.02;100.00;101949.19;5049202;28;19932;-38
2022/09/11 05:42:16;;;;;;;;;;;;;;;13.03;100.00;101948.06;5040331;28;20318;-34
2022/09/11 05:44:51;;;;;;;;;;;;;;;13.04;100.00;101949.75;5046653;28;20293;-40
2022/09/11 05:47:18;;;;;;;;;;;;;;;13.06;100.00;101941.88;5040683;28;19928;-35
2022/09/11 05:49:49;;;;;;;;;;;;;;;13.09;100.00;101944.13;5040508;28;19929;-38
2022/09/11 05:52:17;;;;;;;;;;;;;;;13.11;100.00;101944.66;5040923;28;20253;-40
2022/09/11 05:54:46;;;;;;;;;;;;;;;13.14;100.00;101946.06;5042737;28;20509;-32
2022/09/11 05:57:14;;;;;;;;;;;;;;;13.15;100.00;101954.22;5050407;28;19932;-33
2022/09/11 05:59:42;;;;;;;;;;;;;;;13.17;100.00;101957.56;5047570;28;19967;-33
2022/09/11 06:02:11;;;;;;;;;;;;;;;13.21;100.00;101967.03;5036495;28;19933;-39
2022/09/11 06:04:43;;;;;;;;;;;;;;;13.26;100.00;101961.41;5041157;28;19929;-35
2022/09/11 06:07:11;;;;;;;;;;;;;;;13.29;100.00;101971.22;5018340;28;19929;-35
2022/09/11 06:09:41;;;;;;;;;;;;;;;13.35;100.00;101970.06;5049296;28;20504;-42
2022/09/11 06:12:11;;;;;;;;;;;;;;;13.38;100.00;101975.91;5035949;28;19937;-40
2022/09/11 06:14:43;;;;;;;;;;;;;;;13.43;100.00;101980.63;5040632;28;19963;-34
2022/09/11 06:17:11;;;;;;;;;;;;;;;13.49;100.00;101981.44;5047126;28;20271;-40
2022/09/11 06:19:39;;;;;;;;;;;;;;;13.55;100.00;101992.34;5042476;28;20019;-38
2022/09/11 06:22:06;;;;;;;;;;;;;;;13.61;100.00;101995.94;5037524;28;19929;-40
2022/09/11 06:24:38;;;;;;;;;;;;;;;13.66;100.00;101987.47;5040263;28;19991;-42
2022/09/11 06:27:06;;;;;;;;;;;;;;;13.72;100.00;101995.56;5036633;28;20301;-40
2022/09/11 06:29:38;;;;;;;;;;;;;;;13.78;100.00;101988.78;5041592;28;19928;-33
2022/09/11 06:32:06;;;;;;;;;;;;;;;13.86;100.00;101992.91;5043041;28;20366;-41
2022/09/11 06:34:34;;;;;;;;;;;;;;;13.94;100.00;101988.66;5040352;28;19935;-37
2022/09/11 06:37:06;;;;;;;;;;;;;;;14.04;100.00;101992.19;5042512;28;19940;-40
2022/09/11 06:39:34;;;;;;;;;;;;;;;14.14;100.00;101989.31;5041189;28;19929;-43
2022/09/11 06:42:02;;;;;;;;;;;;;;;14.26;100.00;101996.47;5029378;28;19960;-39
2022/09/11 06:44:33;;;;;;;;;;;;;;;14.35;100.00;101989.09;5042222;28;19928;-36
2022/09/11 06:47:04;;;;;;;;;;;;;;;14.50;100.00;101988.94;5041054;28;19929;-40
2022/09/11 06:49:34;;;;;;;;;;;;;;;14.78;100.00;101990.88;5035671;28;20042;-40
2022/09/11 06:52:20;;;;;;;;;;;;;;;15.36;100.00;101982.19;5043233;28;19991;-39
2022/09/11 06:55:01;;;;;;;;;;;;;;;16.18;100.00;101987.34;5040400;28;19972;-35
2022/09/11 06:57:29;;;;;;;;;;;;;;;16.91;100.00;101983.66;5031080;28;20019;-33
2022/09/11 06:59:57;;;;;;;;;;;;;;;17.69;100.00;101984.44;5037022;28;19929;-41
2022/09/11 07:02:27;;;;;;;;;;;;;;;18.53;100.00;101990.94;5038971;28;20359;-39
2022/09/11 07:04:54;;;;;;;;;;;;;;;19.31;100.00;101985.53;5035177;28;19929;-33
2022/09/11 07:07:25;;;;;;;;;;;;;;;19.99;100.00;101991.56;5038372;28;19925;-37
2022/09/11 07:09:53;;;;;;;;;;;;;;;20.65;100.00;101987.22;5045481;28;19928;-39
2022/09/11 07:12:24;;;;;;;;;;;;;;;21.24;100.00;101975.91;5044017;28;20662;-38
2022/09/11 07:14:51;;;;;;;;;;;;;;;21.81;100.00;101975.28;5034749;28;19929;-40
2022/09/11 07:17:19;;;;;;;;;;;;;;;22.24;100.00;101981.38;5037687;28;19933;-36
2022/09/11 07:19:51;;;;;;;;;;;;;;;22.71;100.00;101978.16;5049274;28;19971;-41
2022/09/11 07:22:18;;;;;;;;;;;;;;;23.23;100.00;101978.25;5043147;28;19975;-38
2022/09/11 07:24:48;;;;;;;;;;;;;;;23.72;100.00;101981.03;5017984;28;19955;-34
2022/09/11 07:27:18;;;;;;;;;;;;;;;24.23;100.00;101976.38;5039292;28;19925;-36
2022/09/11 07:29:46;;;;;;;;;;;;;;;24.70;100.00;101981.34;5048265;28;19928;-40
2022/09/11 07:32:14;;;;;;;;;;;;;;;25.18;98.34;101976.44;5042052;28;19933;-39
2022/09/11 07:34:42;;;;;;;;;;;;;;;25.63;94.64;101978.72;5035871;28;19967;-35
2022/09/11 07:37:12;;;;;;;;;;;;;;;25.98;91.62;101988.03;5041524;28;19931;-41
2022/09/11 07:39:40;;;;;;;;;;;;;;;26.32;87.34;101988.34;5046236;28;20328;-39
2022/09/11 07:42:17;;;;;;;;;;;;;;;26.69;84.61;101991.47;5040408;28;19924;-39
2022/09/11 07:44:46;;;;;;;;;;;;;;;27.05;81.41;101992.94;5036388;28;19925;-41
2022/09/11 07:47:15;;;;;;;;;;;;;;;27.37;78.33;101997.13;5040778;28;19986;-40
2022/09/11 07:49:46;;;;;;;;;;;;;;;27.65;76.08;101995.91;5036820;28;19932;-35
2022/09/11 07:52:17;;;;;;;;;;;;;;;27.90;70.76;101999.09;5040923;28;19929;-40
2022/09/11 07:54:50;;;;;;;;;;;;;;;28.17;69.47;101989.19;5043312;28;19929;-40
2022/09/11 07:57:20;;;;;;;;;;;;;;;28.42;67.78;101995.22;5040718;28;19989;-38
2022/09/11 07:59:50;;;;;;;;;;;;;;;28.54;64.50;101997.00;5041263;28;20358;-38
2022/09/11 08:02:18;;;;;;;;;;;;;;;28.31;62.43;101986.50;5039640;28;20378;-39
2022/09/11 08:04:46;;;;;;;;;;;;;;;27.91;63.23;101990.09;5030039;28;19925;-38
2022/09/11 08:07:16;;;;;;;;;;;;;;;27.46;65.64;101993.97;5042023;28;20023;-36
2022/09/11 08:09:44;;;;;;;;;;;;;;;27.10;68.44;101989.75;5041196;28;19929;-38
2022/09/11 08:12:12;;;;;;;;;;;;;;;26.74;69.58;101994.84;5037268;28;20293;-39
2022/09/11 08:14:40;;;;;;;;;;;;;;;26.38;70.63;101993.34;5039521;28;19933;-36
2022/09/11 08:17:14;;;;;;;;;;;;;;;26.04;71.60;101994.28;5036394;28;20364;-37
2022/09/11 08:19:42;;;;;;;;;;;;;;;25.73;74.25;101993.25;5036840;28;20402;-39
2022/09/11 08:22:11;;;;;;;;;;;;;;;25.40;75.66;102005.13;5043637;28;19936;-40
2022/09/11 08:24:44;;;;;;;;;;;;;;;25.16;78.75;101995.97;5036598;28;19925;-36
2022/09/11 08:27:15;;;;;;;;;;;;;;;25.13;82.94;102005.28;5045509;28;19925;-40
2022/09/11 08:29:44;;;;;;;;;;;;;;;25.37;84.42;102003.03;5041817;28;19929;-35
2022/09/11 08:32:12;;;;;;;;;;;;;;;25.71;82.54;101998.50;5031374;28;19929;-37
2022/09/11 08:34:41;;;;;;;;;;;;;;;25.91;79.80;102001.38;5038001;28;19971;-40
2022/09/11 08:37:08;;;;;;;;;;;;;;;25.94;78.06;102009.22;5048569;28;19925;-38
2022/09/11 08:39:37;;;;;;;;;;;;;;;25.90;79.49;102008.31;5040108;28;19971;-38
2022/09/11 08:42:09;;;;;;;;;;;;;;;25.86;77.41;102005.38;5031833;28;19933;-44
2022/09/11 08:44:41;;;;;;;;;;;;;;;25.78;77.42;102011.31;5037764;28;19936;-38
2022/09/11 08:47:18;;;;;;;;;;;;;;;25.62;76.73;102015.03;5033110;28;19932;-37
2022/09/11 08:49:53;;;;;;;;;;;;;;;25.41;77.03;102020.25;5046171;28;19932;-37
2022/09/11 08:52:23;;;;;;;;;;;;;;;25.18;78.09;102022.97;5033007;28;19972;-37
2022/09/11 08:54:54;;;;;;;;;;;;;;;25.08;80.47;102019.84;5038866;28;19925;-37
2022/09/11 08:57:28;;;;;;;;;;;;;;;25.29;81.49;102020.38;5045622;28;19932;-37
2022/09/11 09:00:05;;;;;;;;;;;;;;;25.71;80.33;102012.00;5037500;28;19996;-37
2022/09/11 09:02:55;;;;;;;;;;;;;;;26.23;79.22;102007.75;5045562;28;19931;-36
2022/09/11 09:05:28;;;;;;;;;;;;;;;26.81;72.92;102005.59;5037181;28;19925;-37
2022/09/11 09:08:05;;;;;;;;;;;;;;;27.31;69.77;102004.41;5046283;28;19936;-35
2022/09/11 09:10:39;;;;;;;;;;;;;;;27.81;66.92;102016.59;5042104;28;20385;-33
2022/09/11 09:13:16;;;;;;;;;;;;;;;28.24;63.16;102017.16;5032820;28;19952;-38
2022/09/11 09:15:47;;;;;;;;;;;;;;;28.53;60.95;102012.56;5039757;28;20374;-39
2022/09/11 09:18:17;;;;;;;;;;;;;;;28.83;61.46;102007.53;5046041;28;20489;-36
2022/09/11 09:20:50;;;;;;;;;;;;;;;29.14;60.06;102006.16;5040947;28;19986;-40
2022/09/11 09:23:18;;;;;;;;;;;;;;;29.53;59.60;102025.78;5042238;28;19929;-44
2022/09/11 09:25:47;;;;;;;;;;;;;;;29.90;57.83;102028.44;5040054;28;19929;-35
2022/09/11 09:28:19;;;;;;;;;;;;;;;29.81;54.47;102020.97;5033977;28;20044;-38
2022/09/11 09:30:50;;;;;;;;;;;;;;;29.47;56.07;102026.16;5059898;28;19999;-39
2022/09/11 09:33:27;;;;;;;;;;;;;;;29.22;57.35;102030.03;5052333;28;19928;-35
2022/09/11 09:35:55;;;;;;;;;;;;;;;28.93;57.63;102032.69;5051137;28;19974;-40
2022/09/11 09:38:27;;;;;;;;;;;;;;;28.65;58.42;102038.13;5052872;28;20287;-42
2022/09/11 09:41:02;;;;;;;;;;;;;;;28.33;59.77;102032.88;5063395;28;20309;-37
2022/09/11 09:43:37;;;;;;;;;;;;;;;28.03;61.28;102034.91;5053749;28;19932;-38
2022/09/11 09:46:10;;;;;;;;;;;;;;;27.82;62.80;102034.63;5071308;28;20469;-39
2022/09/11 09:48:39;;;;;;;;;;;;;;;27.67;64.17;102045.09;5073691;28;20290;-38
2022/09/11 09:51:11;;;;;;;;;;;;;;;27.52;64.92;102032.56;5073861;28;19928;-37
2022/09/11 09:53:40;;;;;;;;;;;;;;;27.68;67.31;102038.97;5074227;28;19928;-36
2022/09/11 09:56:12;;;;;;;;;;;;;;;28.01;66.94;102038.19;5072762;28;19925;-35
2022/09/11 09:58:48;;;;;;;;;;;;;;;28.40;63.73;102043.59;5054517;28;19932;-38
2022/09/11 10:01:46;;;;;;;;;;;;;;;28.84;61.81;102045.72;5069706;28;20317;-42
2022/09/11 10:04:16;;;;;;;;;;;;;;;29.24;59.35;102036.22;5005367;28;20415;-38
2022/09/11 10:06:44;;;;;;;;;;;;;;;29.38;56.72;102044.94;5054654;28;20370;-38
2022/09/11 10:09:30;;;;;;;;;;;;;;;29.51;57.23;102049.19;5073214;28;19982;-39
2022/09/11 10:12:01;;;;;;;;;;;;;;;29.74;55.43;102054.69;5073710;28;19971;-40
2022/09/11 10:14:32;;;;;;;;;;;;;;;29.86;54.68;102050.63;5073963;28;20290;-43
2022/09/11 10:17:21;;;;;;;;;;;;;;;30.05;54.06;102048.28;5072426;28;19925;-39
2022/09/11 10:19:49;;;;;;;;;;;;;;;30.30;53.13;102044.66;5073899;28;19978;-36
2022/09/11 10:22:22;;;;;;;;;;;;;;;30.48;51.88;102039.78;5073191;28;20294;-36
2022/09/11 10:24:52;;;;;;;;;;;;;;;30.62;51.08;102047.66;5071205;28;20381;-36
2022/09/11 10:27:20;;;;;;;;;;;;;;;30.60;51.31;102050.13;5071753;28;19999;-36
2022/09/11 10:29:53;;;;;;;;;;;;;;;30.71;51.25;102037.38;5073148;28;19931;-36
2022/09/11 10:32:23;;;;;;;;;;;;;;;30.89;51.24;102034.53;5072533;28;20381;-42
2022/09/11 10:34:52;;;;;;;;;;;;;;;31.01;49.40;102036.97;5062118;28;19928;-30
2022/09/11 10:37:24;;;;;;;;;;;;;;;31.02;47.47;102035.75;5070363;28;20313;-34
2022/09/11 10:39:52;;;;;;;;;;;;;;;31.06;48.74;102032.88;5072137;28;20447;-30
2022/09/11 10:42:22;;;;;;;;;;;;;;;31.16;46.79;102032.91;5073213;28;19928;-31
2022/09/11 10:44:51;;;;;;;;;;;;;;;31.25;46.89;102034.53;5073091;28;19928;-30
2022/09/11 10:47:23;;;;;;;;;;;;;;;31.27;46.06;102041.53;5073102;28;19970;-31
2022/09/11 10:50:10;;;;;;;;;;;;;;;31.31;45.57;102042.38;5070103;28;19925;-32
2022/09/11 10:52:46;;;;;;;;;;;;;;;31.20;45.29;102043.59;5071854;28;19992;-30
2022/09/11 10:55:16;;;;;;;;;;;;;;;30.96;45.44;102034.53;5073470;28;19929;-30
2022/09/11 10:57:45;;;;;;;;;;;;;;;30.96;45.62;102028.78;5072825;28;19931;-31
2022/09/11 11:00:15;;;;;;;;;;;;;;;31.01;44.58;102030.41;5057787;28;19994;-31
2022/09/11 11:02:46;;;;;;;;;;;;;;;30.83;44.96;102025.44;5072912;28;19974;-32
2022/09/11 11:05:19;;;;;;;;;;;;;;;30.76;46.54;102024.63;5070542;28;19981;-35
2022/09/11 11:07:52;;;;;;;;;;;;;;;30.82;45.46;102026.69;5071986;28;19925;-34
2022/09/11 11:10:24;;;;;;;;;;;;;;;30.83;43.36;102024.63;5071328;28;20064;-34
2022/09/11 11:13:00;;;;;;;;;;;;;;;30.59;45.81;102025.41;5072399;28;19929;-30
2022/09/11 11:15:37;;;;;;;;;;;;;;;30.56;46.62;102024.19;5072847;28;19924;-32
2022/09/11 11:18:22;;;;;;;;;;;;;;;30.72;46.36;102023.81;5072592;28;19981;-32
2022/09/11 11:20:58;;;;;;;;;;;;;;;30.65;45.70;102027.50;5071448;28;20426;-29
2022/09/11 11:23:43;;;;;;;;;;;;;;;30.67;46.63;102019.25;5063545;28;19929;-30
2022/09/11 11:26:16;;;;;;;;;;;;;;;30.76;46.41;102018.88;5058794;28;19924;-31
2022/09/11 11:29:00;;;;;;;;;;;;;;;30.64;45.71;102017.19;5072436;28;19977;-30
2022/09/11 11:31:36;;;;;;;;;;;;;;;30.62;46.74;102015.94;5071252;28;20255;-29
2022/09/11 11:34:28;;;;;;;;;;;;;;;30.67;46.85;102015.56;5071811;28;20032;-36
2022/09/11 11:37:01;;;;;;;;;;;;;;;30.80;46.27;102005.25;5052466;28;19928;-34
2022/09/11 11:39:31;;;;;;;;;;;;;;;30.95;45.78;102021.34;5067025;28;19986;-30
2022/09/11 11:42:06;;;;;;;;;;;;;;;31.03;44.40;102022.16;5071870;28;19929;-30
2022/09/11 11:44:39;;;;;;;;;;;;;;;31.00;43.66;102018.03;5072103;28;19982;-32
2022/09/11 11:47:09;;;;;;;;;;;;;;;30.97;44.53;102018.88;5072418;28;19972;-33
2022/09/11 11:49:47;;;;;;;;;;;;;;;30.67;42.69;102015.56;5070959;28;19936;-34
2022/09/11 11:52:23;;;;;;;;;;;;;;;30.34;45.58;102014.66;5072092;28;19974;-35
2022/09/11 11:54:54;;;;;;;;;;;;;;;30.22;45.81;102020.78;5071224;28;19935;-35
2022/09/11 11:57:25;;;;;;;;;;;;;;;30.28;46.26;102024.09;5072083;28;19928;-30
2022/09/11 11:59:56;;;;;;;;;;;;;;;30.42;47.75;102016.31;5071636;28;20381;-32
2022/09/11 12:02:26;;;;;;;;;;;;;;;30.45;46.41;102014.66;5070803;28;20443;-34
2022/09/11 12:04:57;;;;;;;;;;;;;;;30.43;46.92;102014.25;5071466;28;19932;-34
2022/09/11 12:07:27;;;;;;;;;;;;;;;30.44;47.16;102018.78;5057413;28;19981;-34
2022/09/11 12:09:56;;;;;;;;;;;;;;;30.35;46.27;102012.59;5070914;28;19932;-31
2022/09/11 12:12:25;;;;;;;;;;;;;;;30.19;47.21;102024.47;5070219;28;19951;-30
2022/09/11 12:14:54;;;;;;;;;;;;;;;30.02;47.72;102019.47;5071577;28;19929;-33
2022/09/11 12:17:25;;;;;;;;;;;;;;;29.92;47.08;102023.09;5070974;28;20347;-30
2022/09/11 12:20:11;;;;;;;;;;;;;;;29.72;48.44;102013.97;5071765;28;20309;-30
2022/09/11 12:22:41;;;;;;;;;;;;;;;29.72;49.72;102019.72;5070807;28;19932;-33
2022/09/11 12:25:23;;;;;;;;;;;;;;;29.57;48.49;102015.13;5071472;28;19932;-30
2022/09/11 12:27:52;;;;;;;;;;;;;;;29.28;46.51;102014.06;5071360;28;19982;-35
2022/09/11 12:30:21;;;;;;;;;;;;;;;29.14;47.94;102012.75;5070710;28;19933;-30
2022/09/11 12:32:50;;;;;;;;;;;;;;;29.10;50.65;102009.00;5071409;28;19928;-33
2022/09/11 12:35:20;;;;;;;;;;;;;;;29.17;50.36;102002.50;5071317;28;20292;-31
2022/09/11 12:37:53;;;;;;;;;;;;;;;29.23;49.66;102005.81;5070605;28;19979;-33
2022/09/11 12:40:23;;;;;;;;;;;;;;;29.14;47.63;102021.38;5071723;28;19982;-33
2022/09/11 12:42:59;;;;;;;;;;;;;;;29.04;50.29;102016.34;5066955;28;19928;-32
2022/09/11 12:45:31;;;;;;;;;;;;;;;29.00;50.87;102004.00;5036928;28;20056;-30
2022/09/11 12:48:06;;;;;;;;;;;;;;;28.99;49.92;102001.50;5066084;28;19931;-36
2022/09/11 12:50:34;;;;;;;;;;;;;;;28.82;49.54;101991.53;5070656;28;19925;-30